createdAt,value
2019-01-25T00:02:21.559Z,100101.39
2019-01-25T00:04:49.998Z,100108.23
2019-01-25T00:07:18.481Z,100117.30
2019-01-25T00:09:46.918Z,100119.65
2019-01-25T00:12:15.465Z,100128.34
2019-01-25T00:14:43.898Z,100117.57
2019-01-25T00:20:20.438Z,100127.16
2019-01-25T00:22:48.874Z,100123.75
2019-01-25T00:25:36.657Z,100115.08
2019-01-25T00:28:05.163Z,100118.14
2019-01-25T00:30:53.066Z,100113.34
2019-01-25T00:33:21.503Z,100114.59
2019-01-25T00:36:09.307Z,100116.45
2019-01-25T00:38:37.725Z,100112.63
2019-01-25T00:41:25.431Z,100114.77
2019-01-25T00:43:53.866Z,100117.91
2019-01-25T00:46:22.310Z,100114.14
2019-01-25T00:48:50.774Z,100112.74
2019-01-25T00:51:19.260Z,100116.32
2019-01-25T00:54:06.995Z,100122.95
2019-01-25T00:59:43.524Z,100120.69
2019-01-25T01:02:31.275Z,100112.63
2019-01-25T01:04:59.769Z,100119.06
2019-01-25T01:07:47.522Z,100123.27
2019-01-25T01:10:55.994Z,100123.17
2019-01-25T01:13:43.620Z,100124.78
2019-01-25T01:16:12.085Z,100120.23
2019-01-25T01:18:40.523Z,100128.97
2019-01-25T01:26:30.660Z,100127.28
2019-01-25T01:28:59.143Z,100130.66
2019-01-25T01:31:27.582Z,100130.87
2019-01-25T01:33:56.018Z,100132.97
2019-01-25T01:38:58.450Z,100128.26
2019-01-25T01:41:26.922Z,100132.48
2019-01-25T01:43:55.359Z,100134.14
2019-01-25T01:46:43.142Z,100131.27
2019-01-25T01:49:11.650Z,100132.92
2019-01-25T01:51:59.298Z,100133.83
2019-01-25T01:54:27.733Z,100129.45
2019-01-25T01:57:15.403Z,100127.36
2019-01-25T02:00:03.159Z,100131.52
2019-01-25T02:02:51.074Z,100131.66
2019-01-25T02:05:59.422Z,100122.88
2019-01-25T02:11:01.940Z,100116.62
2019-01-25T02:13:49.671Z,100121.92
2019-01-25T02:16:18.138Z,100116.77
2019-01-25T02:19:05.891Z,100113.62
2019-01-25T02:21:34.329Z,100110.69
2019-01-25T02:24:02.838Z,100109.66
2019-01-25T02:26:50.546Z,100107.41
2019-01-25T02:29:18.982Z,100100.35
2019-01-25T02:32:06.659Z,100109.34
2019-01-25T02:34:35.110Z,100106.95
2019-01-25T02:37:03.546Z,100107.70
2019-01-25T02:42:25.294Z,100112.05
2019-01-25T02:45:12.948Z,100109.38
2019-01-25T02:50:49.518Z,100110.26
2019-01-25T02:53:17.953Z,100118.27
2019-01-25T02:55:46.394Z,100117.67
2019-01-25T02:58:14.874Z,100119.83
2019-01-25T03:00:43.306Z,100113.78
2019-01-25T03:03:11.745Z,100110.77
2019-01-25T03:05:40.215Z,100108.81
2019-01-25T03:08:08.719Z,100112.84
2019-01-25T03:13:50.551Z,100112.89
2019-01-25T03:16:38.180Z,100111.53
2019-01-25T03:22:00.347Z,100104.23
2019-01-25T03:27:22.019Z,100114.02
2019-01-25T03:29:50.522Z,100127.38
2019-01-25T03:32:18.957Z,100116.81
2019-01-25T03:34:47.394Z,100116.88
2019-01-25T03:40:09.533Z,100111.98
2019-01-25T03:42:57.385Z,100112.45
2019-01-25T03:46:05.734Z,100117.71
2019-01-25T03:56:36.145Z,100119.89
2019-01-25T03:59:44.540Z,100114.25
2019-01-25T04:02:32.166Z,100114.72
2019-01-25T04:07:35.078Z,100113.67
2019-01-25T04:10:43.454Z,100115.70
2019-01-25T04:13:11.891Z,100115.25
2019-01-25T04:21:01.863Z,100125.55
2019-01-25T04:23:30.406Z,100126.81
2019-01-25T04:25:58.846Z,100130.23
2019-01-25T04:28:27.284Z,100132.50
2019-01-25T04:31:15.027Z,100124.16
2019-01-25T04:33:43.493Z,100125.92
2019-01-25T04:36:31.323Z,100126.32
2019-01-25T04:38:59.738Z,100125.94
2019-01-25T04:41:28.173Z,100132.92
2019-01-25T04:43:56.641Z,100132.09
2019-01-25T04:46:25.071Z,100130.68
2019-01-25T04:48:53.506Z,100137.83
2019-01-25T04:51:22.001Z,100136.36
2019-01-25T04:54:09.740Z,100139.78
2019-01-25T04:56:38.358Z,100140.31
2019-01-25T05:02:15.218Z,100130.23
2019-01-25T05:04:43.650Z,100129.99
2019-01-25T05:07:12.082Z,100129.40
2019-01-25T05:10:00.466Z,100134.82
2019-01-25T05:12:28.866Z,100131.84
2019-01-25T05:14:57.306Z,100138.23
2019-01-25T05:17:25.776Z,100147.86
2019-01-25T05:19:54.281Z,100142.84
2019-01-25T05:22:22.728Z,100147.05
2019-01-25T05:24:51.496Z,100144.38
2019-01-25T05:27:19.934Z,100149.98
2019-01-25T05:29:53.289Z,100149.61
2019-01-25T05:32:22.009Z,100143.83
2019-01-25T05:34:50.445Z,100154.23
2019-01-25T05:37:19.047Z,100147.88
2019-01-25T05:39:47.656Z,100157.17
2019-01-25T05:42:16.159Z,100161.30
2019-01-25T05:44:44.595Z,100160.51
2019-01-25T05:47:13.814Z,100158.97
2019-01-25T05:49:42.254Z,100167.15
2019-01-25T05:52:15.931Z,100156.05
2019-01-25T05:54:44.570Z,100162.41
2019-01-25T05:57:13.004Z,100163.70
2019-01-25T05:59:41.444Z,100158.16
2019-01-25T06:02:10.055Z,100169.82
2019-01-25T06:04:39.836Z,100172.58
2019-01-25T06:07:08.336Z,100176.34
2019-01-25T06:09:36.907Z,100168.59
2019-01-25T06:12:05.522Z,100167.77
2019-01-25T06:14:33.980Z,100165.74
2019-01-25T06:17:02.426Z,100167.79
2019-01-25T06:19:34.183Z,100172.50
2019-01-25T06:22:02.618Z,100174.53
2019-01-25T06:24:31.135Z,100178.97
2019-01-25T06:26:59.642Z,100193.03
2019-01-25T06:29:30.889Z,100187.64
2019-01-25T06:31:59.367Z,100182.63
2019-01-25T06:34:27.885Z,100181.10
2019-01-25T06:36:56.324Z,100182.83
2019-01-25T06:39:24.924Z,100193.78
2019-01-25T06:41:53.358Z,100198.98
2019-01-25T06:44:21.798Z,100208.94
2019-01-25T06:46:50.298Z,100206.44
2019-01-25T06:49:18.743Z,100212.65
2019-01-25T06:51:47.202Z,100215.68
2019-01-25T06:54:15.675Z,100213.57
2019-01-25T06:56:44.108Z,100214.53
2019-01-25T06:59:14.178Z,100219.30
2019-01-25T07:01:44.286Z,100215.44
2019-01-25T07:04:12.792Z,100210.85
2019-01-25T07:06:41.300Z,100217.34
2019-01-25T07:09:11.063Z,100211.47
2019-01-25T07:11:42.271Z,100207.58
2019-01-25T07:14:09.803Z,100220.06
2019-01-25T07:16:38.259Z,100220.71
2019-01-25T07:19:06.766Z,100226.06
2019-01-25T07:21:35.211Z,100229.81
2019-01-25T07:24:04.969Z,100224.17
2019-01-25T07:26:33.419Z,100218.78
2019-01-25T07:29:01.885Z,100223.55
2019-01-25T07:31:30.536Z,100224.10
2019-01-25T07:33:59.003Z,100228.78
2019-01-25T07:36:27.451Z,100225.16
2019-01-25T07:38:55.908Z,100229.09
2019-01-25T07:41:24.351Z,100226.23
2019-01-25T07:43:52.832Z,100239.30
2019-01-25T07:46:21.303Z,100235.81
2019-01-25T07:48:49.773Z,100237.56
2019-01-25T07:51:18.239Z,100241.95
2019-01-25T07:53:46.889Z,100248.27
2019-01-25T07:56:15.421Z,100245.66
2019-01-25T07:58:43.861Z,100239.70
2019-01-25T08:01:12.406Z,100241.27
2019-01-25T08:03:40.878Z,100244.78
2019-01-25T08:06:09.380Z,100250.50
2019-01-25T08:08:37.851Z,100251.88
2019-01-25T08:11:06.409Z,100246.70
2019-01-25T08:13:34.826Z,100240.31
2019-01-25T08:16:03.425Z,100246.86
2019-01-25T08:18:32.021Z,100250.37
2019-01-25T08:21:00.499Z,100252.42
2019-01-25T08:23:28.995Z,100252.31
2019-01-25T08:25:57.503Z,100256.22
2019-01-25T08:28:26.080Z,100252.03
2019-01-25T08:30:54.798Z,100254.09
2019-01-25T08:33:23.246Z,100261.42
2019-01-25T08:35:51.673Z,100258.80
2019-01-25T08:38:20.600Z,100252.59
2019-01-25T08:40:49.050Z,100255.30
2019-01-25T08:43:17.531Z,100263.34
2019-01-25T08:45:46.213Z,100262.46
2019-01-25T08:48:14.709Z,100264.04
2019-01-25T08:50:43.147Z,100258.69
2019-01-25T08:53:11.723Z,100255.06
2019-01-25T08:55:40.169Z,100261.92
2019-01-25T08:58:08.620Z,100268.13
2019-01-25T09:00:37.147Z,100270.29
2019-01-25T09:03:05.820Z,100269.98
2019-01-25T09:05:34.757Z,100268.41
2019-01-25T09:08:03.730Z,100273.74
2019-01-25T09:10:32.206Z,100278.61
2019-01-25T09:13:00.717Z,100278.06
2019-01-25T09:15:33.991Z,100282.06
2019-01-25T09:18:02.503Z,100283.91
2019-01-25T09:20:31.007Z,100290.11
2019-01-25T09:22:59.551Z,100291.31
2019-01-25T09:25:28.012Z,100283.17
2019-01-25T09:27:56.467Z,100291.10
2019-01-25T09:30:28.571Z,100290.77
2019-01-25T09:32:57.080Z,100283.33
2019-01-25T09:35:25.656Z,100285.08
2019-01-25T09:37:54.549Z,100284.93
2019-01-25T09:40:25.007Z,100293.34
2019-01-25T09:42:53.618Z,100285.77
2019-01-25T09:45:22.610Z,100280.24
2019-01-25T09:47:52.103Z,100295.25
2019-01-25T09:50:22.477Z,100290.81
2019-01-25T09:52:51.352Z,100292.17
2019-01-25T09:55:24.443Z,100300.83
2019-01-25T09:57:54.226Z,100298.70
2019-01-25T10:00:25.917Z,100304.13
2019-01-25T10:02:54.376Z,100299.81
2019-01-25T10:05:22.930Z,100298.95
2019-01-25T10:07:51.857Z,100291.27
2019-01-25T10:10:21.301Z,100295.34
2019-01-25T10:12:49.846Z,100295.95
2019-01-25T10:15:21.451Z,100293.47
2019-01-25T10:17:49.885Z,100299.64
2019-01-25T10:20:19.049Z,100294.97
2019-01-25T10:22:47.765Z,100294.17
2019-01-25T10:25:16.366Z,100288.70
2019-01-25T10:27:44.868Z,100287.66
2019-01-25T10:30:22.305Z,100291.89
2019-01-25T10:32:50.810Z,100291.45
2019-01-25T10:35:19.977Z,100285.60
2019-01-25T10:37:48.883Z,100286.41
2019-01-25T10:40:19.743Z,100291.40
2019-01-25T10:42:53.426Z,100289.89
2019-01-25T10:45:21.501Z,100286.55
2019-01-25T10:47:50.009Z,100279.98
2019-01-25T10:50:18.518Z,100279.34
2019-01-25T10:52:47.142Z,100273.73
2019-01-25T10:55:15.713Z,100284.30
2019-01-25T10:57:44.485Z,100268.81
2019-01-25T11:00:18.451Z,100268.69
2019-01-25T11:02:46.950Z,100274.70
2019-01-25T11:05:29.051Z,100273.81
2019-01-25T11:07:57.616Z,100270.85
2019-01-25T11:10:26.116Z,100270.25
2019-01-25T11:15:28.553Z,100264.70
2019-01-25T11:18:16.362Z,100266.05
2019-01-25T11:20:44.805Z,100263.02
2019-01-25T11:23:13.244Z,100258.88
2019-01-25T11:26:21.612Z,100259.66
2019-01-25T11:28:50.044Z,100260.19
2019-01-25T11:31:18.477Z,100257.92
2019-01-25T11:33:46.954Z,100254.00
2019-01-25T11:36:15.387Z,100259.30
2019-01-25T11:38:43.821Z,100257.55
2019-01-25T11:41:12.346Z,100261.53
2019-01-25T11:43:40.781Z,100251.58
2019-01-25T11:46:09.214Z,100243.73
2019-01-25T11:48:37.669Z,100243.34
2019-01-25T11:51:06.102Z,100236.78
2019-01-25T11:53:34.569Z,100230.63
2019-01-25T11:58:36.605Z,100228.45
2019-01-25T12:01:44.976Z,100231.10
2019-01-25T12:09:36.946Z,100232.41
2019-01-25T12:12:45.320Z,100220.59
2019-01-25T12:15:53.662Z,100230.63
2019-01-25T12:18:22.240Z,100231.52
2019-01-25T12:20:50.667Z,100215.33
2019-01-25T12:23:19.099Z,100219.28
2019-01-25T12:28:21.467Z,100214.91
2019-01-25T12:30:50.033Z,100217.52
2019-01-25T12:33:18.465Z,100227.58
2019-01-25T12:35:46.918Z,100233.73
2019-01-25T12:38:15.376Z,100232.40
2019-01-25T12:41:03.122Z,100225.84
2019-01-25T12:46:25.022Z,100213.57
2019-01-25T12:48:53.476Z,100215.78
2019-01-25T12:51:21.989Z,100215.33
2019-01-25T12:54:09.778Z,100219.70
2019-01-25T12:56:57.552Z,100214.45
2019-01-25T12:59:45.239Z,100221.45
2019-01-25T13:02:13.735Z,100219.27
2019-01-25T13:04:42.159Z,100214.44
2019-01-25T13:07:10.635Z,100214.44
2019-01-25T13:09:39.064Z,100214.03
2019-01-25T13:12:26.760Z,100226.27
2019-01-25T13:14:55.183Z,100217.52
2019-01-25T13:17:23.610Z,100204.82
2019-01-25T13:19:52.062Z,100207.47
2019-01-25T13:22:20.483Z,100217.09
2019-01-25T13:24:48.913Z,100221.90
2019-01-25T13:29:59.460Z,100225.83
2019-01-25T13:32:28.003Z,100226.25
2019-01-25T13:34:56.438Z,100225.85
2019-01-25T13:37:24.944Z,100231.07
2019-01-25T13:42:27.775Z,100232.82
2019-01-25T13:44:56.216Z,100239.39
2019-01-25T13:49:58.880Z,100229.34
2019-01-25T13:55:00.911Z,100214.88
2019-01-25T13:57:29.337Z,100206.14
2019-01-25T14:02:31.574Z,100210.09
2019-01-25T14:05:00.034Z,100217.97
2019-01-25T14:07:28.464Z,100225.38
2019-01-25T14:09:56.897Z,100235.47
2019-01-25T14:14:58.933Z,100248.16
2019-01-25T14:17:27.372Z,100249.93
2019-01-25T14:19:55.830Z,100247.72
2019-01-25T14:22:24.277Z,100247.72
2019-01-25T14:24:52.716Z,100239.81
2019-01-25T14:27:21.252Z,100234.56
2019-01-25T14:29:49.739Z,100231.95
2019-01-25T14:32:18.113Z,100230.20
2019-01-25T14:34:46.569Z,100231.08
2019-01-25T14:43:16.809Z,100211.39
2019-01-25T14:45:45.242Z,100212.70
2019-01-25T14:50:47.595Z,100198.27
2019-01-25T14:53:35.365Z,100197.38
2019-01-25T14:56:03.869Z,100193.02
2019-01-25T14:58:32.298Z,100193.45
2019-01-25T15:01:00.761Z,100195.61
2019-01-25T15:03:29.185Z,100192.13
2019-01-25T15:06:17.057Z,100194.75
2019-01-25T15:08:45.479Z,100199.14
2019-01-25T15:11:13.929Z,100201.33
2019-01-25T15:13:42.408Z,100191.27
2019-01-25T15:16:10.827Z,100184.67
2019-01-25T15:21:51.668Z,100197.38
2019-01-25T15:24:20.124Z,100200.43
2019-01-25T15:26:48.552Z,100211.38
2019-01-25T15:29:36.211Z,100197.38
2019-01-25T15:32:44.559Z,100190.35
2019-01-25T15:35:53.066Z,100192.95
2019-01-25T15:38:21.549Z,100193.82
2019-01-25T15:40:50.053Z,100196.88
2019-01-25T15:49:05.181Z,100198.59
2019-01-25T15:51:33.617Z,100196.37
2019-01-25T15:54:02.053Z,100198.12
2019-01-25T15:59:05.168Z,100192.44
2019-01-25T16:04:07.285Z,100190.64
2019-01-25T16:06:35.712Z,100197.63
2019-01-25T16:09:23.868Z,100198.95
2019-01-25T16:11:53.778Z,100200.30
2019-01-25T16:14:22.974Z,100210.35
2019-01-25T16:16:52.461Z,100215.16
2019-01-25T16:19:20.892Z,100218.61
2019-01-25T16:21:49.326Z,100216.85
2019-01-25T16:24:17.793Z,100216.42
2019-01-25T16:26:46.247Z,100219.92
2019-01-25T16:29:33.989Z,100218.65
2019-01-25T16:32:02.421Z,100216.47
2019-01-25T16:34:30.853Z,100217.30
2019-01-25T16:36:59.321Z,100222.11
2019-01-25T16:39:27.752Z,100219.92
2019-01-25T16:41:56.182Z,100223.95
2019-01-25T16:44:43.978Z,100234.38
2019-01-25T16:49:59.909Z,100224.77
2019-01-25T16:52:28.348Z,100220.35
2019-01-25T16:54:56.778Z,100214.23
2019-01-25T16:59:59.535Z,100202.44
2019-01-25T17:02:47.261Z,100200.69
2019-01-25T17:08:23.860Z,100213.80
2019-01-25T17:10:52.289Z,100219.53
2019-01-25T17:13:20.721Z,100228.22
2019-01-25T17:18:42.763Z,100215.16
2019-01-25T17:21:11.214Z,100208.98
2019-01-25T17:23:39.645Z,100204.62
2019-01-25T17:26:08.076Z,100216.03
2019-01-25T17:31:10.830Z,100206.41
2019-01-25T17:36:13.758Z,100204.67
2019-01-25T17:38:42.215Z,100208.20
2019-01-25T17:41:50.567Z,100198.99
2019-01-25T17:46:52.713Z,100200.30
2019-01-25T17:52:14.958Z,100200.73
2019-01-25T17:54:43.424Z,100197.67
2019-01-25T17:57:31.047Z,100198.50
2019-01-25T17:59:59.505Z,100191.50
2019-01-25T18:02:47.060Z,100190.20
2019-01-25T18:05:34.957Z,100181.02
2019-01-25T18:08:03.460Z,100177.95
2019-01-25T18:10:31.972Z,100181.02
2019-01-25T18:13:00.425Z,100179.66
2019-01-25T18:15:28.857Z,100177.48
2019-01-25T18:17:57.292Z,100177.03
2019-01-25T18:20:45.082Z,100179.70
2019-01-25T18:23:13.515Z,100172.23
2019-01-25T18:26:21.888Z,100165.29
2019-01-25T18:29:30.242Z,100171.36
2019-01-25T18:34:32.177Z,100165.19
2019-01-25T18:37:00.613Z,100155.20
2019-01-25T18:39:29.082Z,100170.47
2019-01-25T18:41:57.519Z,100168.73
2019-01-25T18:44:25.952Z,100161.75
2019-01-25T18:46:54.407Z,100153.02
2019-01-25T18:49:22.840Z,100157.81
2019-01-25T18:51:51.270Z,100155.63
2019-01-25T18:54:19.804Z,100154.75
2019-01-25T18:56:48.237Z,100153.45
2019-01-25T18:59:16.669Z,100155.68
2019-01-25T19:02:04.541Z,100156.93
2019-01-25T19:04:32.982Z,100156.45
2019-01-25T19:07:20.562Z,100156.88
2019-01-25T19:10:08.200Z,100159.08
2019-01-25T19:12:55.969Z,100159.95
2019-01-25T19:16:04.344Z,100150.77
2019-01-25T19:21:26.567Z,100147.72
2019-01-25T19:24:14.366Z,100151.21
2019-01-25T19:27:02.046Z,100146.84
2019-01-25T19:44:08.119Z,100141.11
2019-01-25T19:46:55.754Z,100136.80
2019-01-25T19:51:58.292Z,100126.70
2019-01-25T19:54:26.753Z,100124.06
2019-01-25T19:56:55.387Z,100123.20
2019-01-25T19:59:43.159Z,100123.27
2019-01-25T20:05:46.261Z,100110.97
2019-01-25T20:11:22.972Z,100121.84
2019-01-25T20:14:10.747Z,100110.10
2019-01-25T20:16:39.427Z,100110.55
2019-01-25T20:25:07.789Z,100110.48
2019-01-25T20:27:55.790Z,100106.62
2019-01-25T20:30:49.563Z,100098.74
2019-01-25T20:33:33.241Z,100106.98
2019-01-25T20:36:20.903Z,100106.91
2019-01-25T20:39:08.732Z,100099.05
2019-01-25T20:41:56.498Z,100106.91
2019-01-25T20:44:25.067Z,100109.97
2019-01-25T20:47:12.859Z,100113.47
2019-01-25T20:50:00.584Z,100110.84
2019-01-25T20:52:48.310Z,100109.98
2019-01-25T20:55:56.824Z,100111.77
2019-01-25T20:58:44.607Z,100114.83
2019-01-25T21:01:13.083Z,100104.81
2019-01-25T21:04:00.867Z,100096.95
2019-01-25T21:06:48.576Z,100085.20
2019-01-25T21:09:36.362Z,100087.84
2019-01-25T21:12:24.195Z,100086.04
2019-01-25T21:15:11.861Z,100078.23
2019-01-25T21:17:40.483Z,100073.86
2019-01-25T21:20:47.511Z,100066.48
2019-01-25T21:23:35.464Z,100069.98
2019-01-25T21:29:12.172Z,100068.23
2019-01-25T21:31:40.607Z,100065.17
2019-01-25T21:34:09.045Z,100058.19
2019-01-25T21:36:56.773Z,100049.89
2019-01-25T21:39:44.409Z,100045.08
2019-01-25T21:42:12.898Z,100044.21
2019-01-25T21:44:41.349Z,100047.30
2019-01-25T21:47:09.782Z,100038.09
2019-01-25T21:49:38.253Z,100046.83
2019-01-25T21:52:25.880Z,100043.77
2019-01-25T21:54:54.351Z,100036.78
2019-01-25T21:57:42.108Z,100031.55
2019-01-25T22:00:50.488Z,100020.19
2019-01-25T22:03:38.251Z,100025.83
2019-01-25T22:06:25.887Z,100026.30
2019-01-25T22:09:13.526Z,100022.38
2019-01-25T22:14:15.553Z,100020.22
2019-01-25T22:19:18.476Z,100025.40
2019-01-25T22:24:21.091Z,100030.30
2019-01-25T22:26:49.593Z,100028.08
2019-01-25T22:29:18.045Z,100037.69
2019-01-25T22:31:46.475Z,100035.09
2019-01-25T22:36:48.445Z,100025.05
2019-01-25T22:39:16.880Z,100023.27
2019-01-25T22:44:39.371Z,100018.47
2019-01-25T22:47:07.871Z,100008.42
2019-01-25T22:49:55.549Z,100010.61
2019-01-25T22:52:24.013Z,100009.73
2019-01-25T22:54:52.447Z,100003.13
2019-01-25T23:00:54.970Z,100004.91
2019-01-25T23:04:03.365Z,100000.56
2019-01-25T23:06:51.117Z,99995.30
2019-01-25T23:09:59.530Z,99995.70
2019-01-25T23:12:27.957Z,99995.27
2019-01-25T23:15:15.702Z,99984.81
2019-01-25T23:18:03.448Z,99983.95
2019-01-25T23:20:31.925Z,99983.53
2019-01-25T23:23:19.542Z,99980.89
2019-01-25T23:25:48.012Z,99979.58
2019-01-25T23:28:16.439Z,99967.38
2019-01-25T23:30:44.886Z,99973.03
2019-01-25T23:33:32.678Z,99970.37
2019-01-25T23:36:01.174Z,99973.46
2019-01-25T23:38:29.613Z,99981.78
2019-01-25T23:41:17.352Z,99982.63
2019-01-25T23:43:45.784Z,99979.55
2019-01-25T23:46:33.561Z,99970.37
2019-01-25T23:49:01.997Z,99975.22
2019-01-25T23:51:30.428Z,99967.78
2019-01-25T23:53:58.892Z,99969.55
2019-01-25T23:56:27.327Z,99968.24
2019-01-25T23:58:55.756Z,99968.66
